Time;durP1;ratioP1;P1;durP2;ratioP2;P2;SDS_P1;SDS_P2;PMS_P1;PMS_P2;Temp;Humidity;BMP_temperature;BMP_pressure;BME280_temperature;BME280_humidity;BME280_pressure;Samples;Min_cycle;Max_cycle;Signal;HPM_P1;HPM_P2
2023/01/27 00:00:35;;;;;;;2.73;2.53;;;15.10;56.70;;;;;;4995972;28;20556;-79
2023/01/27 00:03:04;;;;;;;8.33;3.00;;;15.10;56.70;;;;;;4996628;28;20445;-80
2023/01/27 00:05:32;;;;;;;3.50;2.37;;;15.10;57.10;;;;;;4990655;28;20446;-81
2023/01/27 00:08:00;;;;;;;5.20;2.90;;;15.20;57.30;;;;;;4991728;28;20515;-80
2023/01/27 00:10:28;;;;;;;11.37;2.67;;;15.20;57.30;;;;;;4996545;28;20471;-80
2023/01/27 00:15:42;;;;;;;4.93;2.60;;;15.20;57.30;;;;;;4991504;28;20589;-79
2023/01/27 00:18:11;;;;;;;10.47;2.67;;;15.10;57.30;;;;;;4992694;28;20508;-80
2023/01/27 00:26:24;;;;;;;9.20;2.60;;;15.20;57.30;;;;;;4956116;29;20498;-79
2023/01/27 00:28:52;;;;;;;5.73;2.57;;;15.10;57.30;;;;;;4981078;28;20481;-78
2023/01/27 00:34:10;;;;;;;4.70;2.73;;;15.20;57.10;;;;;;4985206;28;20693;-79
2023/01/27 00:36:38;;;;;;;2.57;2.33;;;15.10;57.40;;;;;;4996693;28;20518;-79
2023/01/27 00:39:06;;;;;;;6.93;2.47;;;15.10;57.50;;;;;;4994508;28;20451;-79
2023/01/27 00:41:34;;;;;;;5.73;2.53;;;15.10;57.50;;;;;;4991604;28;20477;-79
2023/01/27 00:44:03;;;;;;;5.13;2.40;;;15.20;57.50;;;;;;4990673;28;20526;-79
2023/01/27 00:46:31;;;;;;;4.20;2.40;;;15.10;57.30;;;;;;4992816;28;20457;-79
2023/01/27 00:48:59;;;;;;;4.17;2.47;;;15.10;57.20;;;;;;4999432;28;20473;-79
2023/01/27 00:51:28;;;;;;;3.30;2.70;;;15.10;57.10;;;;;;4994003;28;20552;-78
2023/01/27 00:53:58;;;;;;;6.60;2.23;;;15.10;57.10;;;;;;4985791;28;20458;-78
2023/01/27 00:56:27;;;;;;;3.27;2.33;;;15.10;57.20;;;;;;4989855;28;20473;-79
2023/01/27 00:58:54;;;;;;;3.13;2.40;;;15.10;57.20;;;;;;4985194;28;20446;-78
2023/01/27 01:01:22;;;;;;;4.40;2.20;;;15.10;57.20;;;;;;4989725;28;20480;-77
2023/01/27 01:03:50;;;;;;;3.27;2.20;;;15.10;57.20;;;;;;4992729;28;20449;-78
2023/01/27 01:06:18;;;;;;;2.43;2.23;;;15.10;57.30;;;;;;4989983;28;20453;-79
2023/01/27 01:08:48;;;;;;;5.03;2.57;;;15.10;57.50;;;;;;4990038;28;20491;-78
2023/01/27 01:11:16;;;;;;;2.97;2.60;;;15.10;57.50;;;;;;4992550;28;20472;-78
2023/01/27 01:13:44;;;;;;;7.03;2.47;;;15.10;57.30;;;;;;4991432;28;20457;-79
2023/01/27 01:16:13;;;;;;;4.83;2.47;;;15.10;57.40;;;;;;4987819;28;20453;-76
2023/01/27 01:18:41;;;;;;;3.53;2.17;;;15.10;57.40;;;;;;4988367;28;20453;-79
2023/01/27 01:21:09;;;;;;;3.10;2.33;;;15.10;57.50;;;;;;4988962;28;20484;-79
2023/01/27 01:23:39;;;;;;;2.83;2.30;;;15.10;57.50;;;;;;4992047;28;20458;-79
2023/01/27 01:26:09;;;;;;;4.00;2.63;;;15.20;57.60;;;;;;4993277;28;20468;-79
2023/01/27 01:28:37;;;;;;;6.43;2.57;;;15.10;57.50;;;;;;4995602;28;20477;-78
2023/01/27 01:31:05;;;;;;;2.43;2.13;;;15.10;58.20;;;;;;4985714;28;20476;-79
2023/01/27 01:33:33;;;;;;;3.73;2.30;;;15.10;57.60;;;;;;4991058;28;20461;-79
2023/01/27 01:36:05;;;;;;;3.10;2.23;;;15.10;57.70;;;;;;4993235;28;20441;-79
2023/01/27 01:38:33;;;;;;;6.20;2.50;;;15.10;57.60;;;;;;4986575;28;20447;-79
2023/01/27 01:41:01;;;;;;;3.27;2.20;;;15.10;57.80;;;;;;4991249;28;20475;-79
2023/01/27 01:43:30;;;;;;;3.90;2.27;;;15.10;57.70;;;;;;4986526;28;20468;-77
2023/01/27 01:45:58;;;;;;;2.87;2.30;;;15.10;57.90;;;;;;4993522;28;20444;-77
2023/01/27 01:48:32;;;;;;;2.87;2.10;;;15.10;57.90;;;;;;4990331;28;20832;-78
2023/01/27 01:51:03;;;;;;;7.03;2.30;;;15.10;57.90;;;;;;4993055;28;20480;-78
2023/01/27 01:53:36;;;;;;;2.80;2.27;;;15.10;57.80;;;;;;4991462;28;20468;-79
2023/01/27 01:56:06;;;;;;;4.17;2.40;;;15.10;57.90;;;;;;4989986;28;20831;-77
2023/01/27 01:58:36;;;;;;;7.03;2.47;;;15.10;57.70;;;;;;4992813;28;20453;-78
2023/01/27 02:01:04;;;;;;;3.37;2.20;;;15.10;57.80;;;;;;4986283;28;20465;-78
2023/01/27 02:03:32;;;;;;;3.60;1.93;;;15.20;57.90;;;;;;4988074;28;20544;-78
2023/01/27 02:06:00;;;;;;;6.00;2.27;;;15.20;58.00;;;;;;4992148;28;20525;-78
2023/01/27 02:08:29;;;;;;;5.50;2.40;;;15.10;57.90;;;;;;4992875;28;20460;-79
2023/01/27 02:10:57;;;;;;;4.33;1.80;;;15.20;58.00;;;;;;4991978;28;20473;-78
2023/01/27 02:13:24;;;;;;;5.47;2.40;;;15.10;57.90;;;;;;4988876;28;20445;-77
2023/01/27 02:15:54;;;;;;;3.93;2.00;;;15.10;58.00;;;;;;4988968;28;20454;-78
2023/01/27 02:18:22;;;;;;;6.10;2.13;;;15.10;57.90;;;;;;4983993;28;20445;-77
2023/01/27 02:20:51;;;;;;;5.30;2.73;;;15.10;58.00;;;;;;4992899;28;20469;-79
2023/01/27 02:23:26;;;;;;;7.30;2.30;;;15.10;58.00;;;;;;4988679;28;20462;-78
2023/01/27 02:25:57;;;;;;;3.10;2.13;;;15.10;58.00;;;;;;4988891;28;20468;-78
2023/01/27 02:28:26;;;;;;;5.27;2.70;;;15.10;58.00;;;;;;4992730;28;20468;-78
2023/01/27 02:30:54;;;;;;;5.90;2.53;;;15.10;58.00;;;;;;4986396;28;20477;-78
2023/01/27 02:33:22;;;;;;;3.90;3.00;;;15.10;58.10;;;;;;4990984;28;20512;-78
2023/01/27 02:35:55;;;;;;;3.83;2.70;;;15.10;58.10;;;;;;4993292;28;20445;-78
2023/01/27 02:38:22;;;;;;;4.90;3.20;;;15.10;58.10;;;;;;4990940;28;20463;-78
2023/01/27 02:40:51;;;;;;;4.57;2.40;;;15.10;58.10;;;;;;4987308;28;20465;-77
2023/01/27 02:43:21;;;;;;;3.53;2.73;;;15.10;58.20;;;;;;4993859;28;20448;-80
2023/01/27 02:45:48;;;;;;;3.33;2.70;;;15.10;58.20;;;;;;4998341;28;20449;-77
2023/01/27 02:48:16;;;;;;;2.73;2.23;;;15.10;58.20;;;;;;4990776;28;20525;-78
2023/01/27 02:50:44;;;;;;;2.53;2.37;;;15.20;58.20;;;;;;4984038;28;20490;-78
2023/01/27 02:53:12;;;;;;;6.30;2.50;;;15.20;58.30;;;;;;4991013;28;20452;-79
2023/01/27 02:55:40;;;;;;;2.97;2.50;;;15.10;58.20;;;;;;4991249;28;20476;-78
2023/01/27 02:58:07;;;;;;;4.67;2.93;;;15.20;58.30;;;;;;4985986;28;20438;-79
2023/01/27 03:00:37;;;;;;;4.33;2.77;;;15.20;58.20;;;;;;4994522;28;20469;-78
2023/01/27 03:03:05;;;;;;;4.10;2.67;;;15.10;58.20;;;;;;4990632;28;20431;-79
2023/01/27 03:05:33;;;;;;;2.43;2.23;;;15.10;58.30;;;;;;4983196;28;20442;-79
2023/01/27 03:08:01;;;;;;;2.63;2.43;;;15.10;58.20;;;;;;4985307;28;20464;-79
2023/01/27 03:10:29;;;;;;;2.87;2.20;;;15.10;58.30;;;;;;4986435;28;20910;-80
2023/01/27 03:12:57;;;;;;;4.10;2.70;;;15.10;58.30;;;;;;4993932;28;20473;-80
2023/01/27 03:18:14;;;;;;;2.50;2.20;;;15.10;58.30;;;;;;4995911;28;20447;-80
2023/01/27 03:20:43;;;;;;;2.77;2.33;;;15.10;58.30;;;;;;4996580;28;20455;-80
2023/01/27 03:23:11;;;;;;;4.80;2.30;;;15.10;58.30;;;;;;4991884;28;20453;-80
2023/01/27 03:25:42;;;;;;;2.17;2.07;;;15.10;58.30;;;;;;4992745;28;20453;-80
2023/01/27 03:28:10;;;;;;;3.17;2.00;;;15.10;58.30;;;;;;4990525;28;20453;-80
2023/01/27 03:30:38;;;;;;;8.60;2.50;;;15.10;58.30;;;;;;4993114;28;20474;-80
2023/01/27 03:33:06;;;;;;;4.50;2.20;;;15.10;58.30;;;;;;4991308;28;20449;-80
2023/01/27 03:35:38;;;;;;;2.90;1.97;;;15.10;58.30;;;;;;4993457;28;20542;-81
2023/01/27 03:46:23;;;;;;;2.30;2.10;;;15.00;58.40;;;;;;4994798;28;20450;-80
2023/01/27 03:48:52;;;;;;;2.30;2.10;;;15.00;58.50;;;;;;4994571;28;20464;-80
2023/01/27 03:51:22;;;;;;;1.93;1.80;;;15.10;58.60;;;;;;4990079;28;20473;-80
2023/01/27 03:53:50;;;;;;;4.30;2.33;;;15.00;58.30;;;;;;4993605;28;20449;-79
2023/01/27 03:56:20;;;;;;;3.70;2.10;;;15.00;58.40;;;;;;4989803;28;20472;-79
2023/01/27 03:58:48;;;;;;;1.73;1.53;;;15.10;58.50;;;;;;4996547;28;20501;-80
2023/01/27 04:01:17;;;;;;;3.13;2.10;;;15.00;58.30;;;;;;4989594;28;20470;-80
2023/01/27 04:09:20;;;;;;;2.53;2.30;;;15.00;58.50;;;;;;4993028;28;20449;-80
2023/01/27 04:11:57;;;;;;;3.60;1.90;;;15.00;58.40;;;;;;4993835;28;20483;-81
2023/01/27 04:14:27;;;;;;;3.90;2.07;;;15.00;58.50;;;;;;4995600;28;20456;-79
2023/01/27 04:16:56;;;;;;;5.07;1.90;;;15.00;58.50;;;;;;4997078;28;20476;-79
2023/01/27 04:19:25;;;;;;;3.00;2.20;;;15.00;58.50;;;;;;4993431;28;20468;-80
2023/01/27 04:21:54;;;;;;;2.20;2.00;;;15.00;58.40;;;;;;4998006;28;20453;-80
2023/01/27 04:24:24;;;;;;;4.93;2.80;;;14.90;58.40;;;;;;4993894;28;20445;-79
2023/01/27 04:26:54;;;;;;;2.23;2.13;;;14.90;58.20;;;;;;4993719;28;20472;-77
2023/01/27 04:29:23;;;;;;;2.63;1.73;;;14.90;58.50;;;;;;4996148;28;20463;-80
2023/01/27 04:31:51;;;;;;;2.20;1.77;;;14.90;58.40;;;;;;4996997;28;20488;-78
2023/01/27 04:34:19;;;;;;;4.07;2.00;;;14.90;58.40;;;;;;4991399;28;20449;-80
2023/01/27 04:36:47;;;;;;;5.03;2.00;;;14.90;58.30;;;;;;4993908;28;20939;-80
2023/01/27 04:39:17;;;;;;;2.70;1.70;;;14.90;58.30;;;;;;4996752;28;20464;-80
2023/01/27 04:41:45;;;;;;;1.93;1.83;;;14.90;58.40;;;;;;4992711;28;20470;-80
2023/01/27 04:44:13;;;;;;;2.70;2.07;;;14.90;58.30;;;;;;4997370;28;20460;-80
2023/01/27 04:46:41;;;;;;;2.20;2.00;;;14.90;58.30;;;;;;4998398;28;20464;-79
2023/01/27 04:49:10;;;;;;;1.70;1.53;;;14.80;58.40;;;;;;4999230;28;20503;-79
2023/01/27 04:51:37;;;;;;;1.63;1.53;;;14.80;58.30;;;;;;4993494;28;20476;-79
2023/01/27 04:54:05;;;;;;;1.90;1.70;;;14.80;58.40;;;;;;4998279;28;20441;-80
2023/01/27 04:56:35;;;;;;;2.73;1.90;;;14.80;58.30;;;;;;4990534;28;20476;-79
2023/01/27 04:59:04;;;;;;;1.70;1.60;;;14.80;58.40;;;;;;4997344;28;20449;-81
2023/01/27 05:01:32;;;;;;;1.73;1.63;;;14.80;58.50;;;;;;4994462;28;20468;-80
2023/01/27 05:04:00;;;;;;;1.93;1.70;;;14.80;58.40;;;;;;4996713;28;20452;-79
2023/01/27 05:06:28;;;;;;;2.70;1.80;;;14.80;58.40;;;;;;4994739;28;20456;-80
2023/01/27 05:08:56;;;;;;;2.00;1.80;;;14.80;58.30;;;;;;4992879;28;20454;-80
2023/01/27 05:11:25;;;;;;;3.47;1.90;;;14.80;58.40;;;;;;4993558;28;20480;-80
2023/01/27 05:13:54;;;;;;;3.10;2.03;;;14.80;58.40;;;;;;4998632;28;20455;-79
2023/01/27 05:16:24;;;;;;;1.73;1.63;;;14.80;58.40;;;;;;4990769;28;20445;-79
2023/01/27 05:18:52;;;;;;;1.63;1.53;;;14.70;58.30;;;;;;4988421;28;20512;-78
2023/01/27 05:21:21;;;;;;;2.10;1.27;;;14.70;58.40;;;;;;4992154;28;21005;-79
2023/01/27 05:23:49;;;;;;;1.83;1.50;;;14.80;58.40;;;;;;4995628;28;20476;-79
2023/01/27 05:26:18;;;;;;;3.03;1.80;;;14.70;58.40;;;;;;4995942;28;20473;-80
2023/01/27 05:28:47;;;;;;;2.17;1.97;;;14.70;58.30;;;;;;4996778;28;20456;-79
2023/01/27 05:31:17;;;;;;;1.70;1.60;;;14.80;58.40;;;;;;4993425;28;20485;-79
2023/01/27 05:33:46;;;;;;;2.10;1.50;;;14.70;58.30;;;;;;4995265;28;20500;-79
2023/01/27 05:36:15;;;;;;;2.13;1.70;;;14.70;58.30;;;;;;4990946;28;20460;-79
2023/01/27 05:38:43;;;;;;;3.63;1.67;;;14.70;58.30;;;;;;4993645;28;20445;-78
2023/01/27 05:41:12;;;;;;;4.00;1.60;;;14.70;58.30;;;;;;4993204;28;20538;-79
2023/01/27 05:43:41;;;;;;;1.83;1.73;;;14.70;58.20;;;;;;4995973;28;20463;-80
2023/01/27 05:46:09;;;;;;;1.60;1.43;;;14.70;58.20;;;;;;4996566;28;20454;-80
2023/01/27 05:48:40;;;;;;;2.20;1.60;;;14.70;58.20;;;;;;4989642;28;20457;-79
2023/01/27 05:51:08;;;;;;;2.50;1.70;;;14.70;58.30;;;;;;4994874;28;20481;-79
2023/01/27 05:53:36;;;;;;;2.07;1.60;;;14.70;58.30;;;;;;4994126;28;20463;-80
2023/01/27 05:56:04;;;;;;;2.60;1.43;;;14.70;58.30;;;;;;4995476;28;20488;-79
2023/01/27 05:58:32;;;;;;;2.13;1.60;;;14.70;58.40;;;;;;4991102;28;20465;-79
2023/01/27 06:01:07;;;;;;;3.50;1.47;;;14.70;58.30;;;;;;4990167;28;20466;-79
2023/01/27 06:03:35;;;;;;;1.70;1.60;;;14.70;58.30;;;;;;4991023;28;20461;-79
2023/01/27 06:06:05;;;;;;;3.30;1.70;;;14.70;58.30;;;;;;4992421;28;20543;-79
2023/01/27 06:08:33;;;;;;;1.50;1.40;;;14.70;58.30;;;;;;4991429;28;20449;-80
2023/01/27 06:11:01;;;;;;;1.40;1.30;;;14.70;58.20;;;;;;4986954;28;20485;-80
2023/01/27 06:13:28;;;;;;;1.60;1.40;;;14.70;58.20;;;;;;4991082;28;20458;-79
2023/01/27 06:15:56;;;;;;;5.17;1.47;;;14.70;58.40;;;;;;4991446;28;20469;-80
2023/01/27 06:18:24;;;;;;;1.63;1.53;;;14.70;58.30;;;;;;4984650;28;20476;-80
2023/01/27 06:20:52;;;;;;;1.30;1.20;;;14.70;58.20;;;;;;4989201;28;20457;-80
2023/01/27 06:23:21;;;;;;;3.57;1.47;;;14.70;58.30;;;;;;4990760;28;20453;-79
2023/01/27 06:25:49;;;;;;;1.53;1.43;;;14.70;58.30;;;;;;4993134;28;20469;-80
2023/01/27 06:28:17;;;;;;;1.87;1.60;;;14.70;58.40;;;;;;4989495;28;20456;-80
2023/01/27 06:31:05;;;;;;;1.30;1.30;;;14.70;58.30;;;;;;4994404;28;20477;-79
2023/01/27 06:33:33;;;;;;;1.57;1.47;;;14.60;58.20;;;;;;4990804;28;20441;-80
2023/01/27 06:36:02;;;;;;;1.83;1.50;;;14.60;58.40;;;;;;4992168;28;20449;-80
2023/01/27 06:38:32;;;;;;;2.03;1.53;;;14.70;58.40;;;;;;4993854;28;20472;-79
2023/01/27 06:41:00;;;;;;;1.57;1.50;;;14.60;58.30;;;;;;4987546;28;20476;-79
2023/01/27 06:43:28;;;;;;;1.77;1.67;;;14.60;58.30;;;;;;4995110;28;20967;-79
2023/01/27 06:45:57;;;;;;;1.83;1.70;;;14.60;58.30;;;;;;4992712;28;20462;-80
2023/01/27 06:48:25;;;;;;;1.57;1.33;;;14.60;58.30;;;;;;4985153;28;20462;-79
2023/01/27 06:50:53;;;;;;;1.77;1.67;;;14.60;58.30;;;;;;4985619;28;20478;-80
2023/01/27 06:53:22;;;;;;;1.27;1.20;;;14.60;58.20;;;;;;4984604;28;20449;-79
2023/01/27 06:55:54;;;;;;;1.23;1.20;;;14.60;58.30;;;;;;4995072;28;20469;-80
2023/01/27 06:58:23;;;;;;;1.33;1.23;;;14.60;58.30;;;;;;4996100;28;20450;-81
2023/01/27 07:00:51;;;;;;;1.43;1.33;;;14.60;58.20;;;;;;4993550;28;20468;-80
2023/01/27 07:03:19;;;;;;;2.60;1.47;;;14.60;58.20;;;;;;4992984;28;20460;-79
2023/01/27 07:05:47;;;;;;;2.67;1.50;;;14.60;58.30;;;;;;4992433;28;20467;-79
2023/01/27 07:08:15;;;;;;;1.43;1.30;;;14.60;58.30;;;;;;4993300;28;20991;-80
2023/01/27 07:10:42;;;;;;;1.50;1.40;;;14.60;58.30;;;;;;4991276;28;20473;-80
2023/01/27 07:13:12;;;;;;;1.43;1.23;;;14.60;58.20;;;;;;4992286;28;20478;-80
2023/01/27 07:15:41;;;;;;;1.57;1.47;;;14.60;58.80;;;;;;4987919;28;20457;-80
2023/01/27 07:18:09;;;;;;;1.63;1.20;;;14.60;58.20;;;;;;4991759;28;20486;-80
2023/01/27 07:20:38;;;;;;;2.10;1.20;;;14.60;58.20;;;;;;4988224;28;20488;-80
2023/01/27 07:23:06;;;;;;;2.00;1.33;;;14.60;58.20;;;;;;4993395;28;20477;-80
2023/01/27 07:25:35;;;;;;;1.37;1.20;;;14.60;58.20;;;;;;4990498;28;20476;-79
2023/01/27 07:28:03;;;;;;;1.40;1.30;;;14.60;58.10;;;;;;4990744;28;20488;-79
2023/01/27 07:30:33;;;;;;;2.30;1.40;;;14.60;58.20;;;;;;4993035;28;20537;-79
2023/01/27 07:33:04;;;;;;;1.50;1.40;;;14.60;58.20;;;;;;4994260;28;20504;-79
2023/01/27 07:35:32;;;;;;;2.00;1.80;;;14.60;58.20;;;;;;4990323;28;20462;-79
2023/01/27 07:38:00;;;;;;;1.50;1.40;;;14.60;58.20;;;;;;4991908;28;20459;-79
2023/01/27 07:40:28;;;;;;;1.63;1.17;;;14.60;58.20;;;;;;4991645;28;20474;-79
2023/01/27 07:42:58;;;;;;;1.37;1.27;;;14.60;58.10;;;;;;4991719;28;20441;-81
2023/01/27 07:45:25;;;;;;;1.23;1.23;;;14.60;58.20;;;;;;4992014;28;20469;-81
2023/01/27 07:48:01;;;;;;;1.40;1.30;;;14.60;58.20;;;;;;4996142;28;20984;-81
2023/01/27 07:50:29;;;;;;;1.50;1.40;;;14.60;58.20;;;;;;4995106;28;20479;-80
2023/01/27 07:52:59;;;;;;;1.37;1.27;;;14.60;58.20;;;;;;4997399;28;20465;-81
2023/01/27 07:55:27;;;;;;;1.27;1.20;;;14.60;58.20;;;;;;4992913;28;20461;-81
2023/01/27 07:57:55;;;;;;;1.47;1.20;;;14.60;58.30;;;;;;4997597;28;20456;-81
2023/01/27 08:00:24;;;;;;;2.17;1.20;;;14.60;58.10;;;;;;4995006;28;20481;-81
2023/01/27 08:02:52;;;;;;;1.30;1.20;;;14.60;58.10;;;;;;4987782;28;20953;-82
2023/01/27 08:05:22;;;;;;;2.43;1.17;;;14.60;58.10;;;;;;4996476;28;20489;-81
2023/01/27 08:07:50;;;;;;;1.10;1.10;;;14.60;58.20;;;;;;4992635;28;20464;-81
2023/01/27 08:10:18;;;;;;;1.93;1.20;;;14.60;58.20;;;;;;4989991;28;20473;-81
2023/01/27 08:12:46;;;;;;;1.37;1.30;;;14.60;58.20;;;;;;4994942;28;20482;-81
2023/01/27 08:15:14;;;;;;;1.93;1.50;;;14.60;58.20;;;;;;4996707;28;20453;-82
2023/01/27 08:17:52;;;;;;;1.30;1.20;;;14.60;58.20;;;;;;4995412;28;20452;-82
2023/01/27 08:20:21;;;;;;;1.37;1.27;;;14.60;58.20;;;;;;4997493;28;20487;-81
2023/01/27 08:22:49;;;;;;;1.63;1.53;;;14.60;58.10;;;;;;4992505;28;20834;-81
2023/01/27 08:25:17;;;;;;;1.60;1.50;;;14.60;58.10;;;;;;4997851;28;20459;-81
2023/01/27 08:27:45;;;;;;;2.33;1.13;;;14.70;58.30;;;;;;4994337;28;20476;-81
2023/01/27 08:30:13;;;;;;;2.40;1.40;;;14.70;58.30;;;;;;4997780;28;20480;-81
2023/01/27 08:32:41;;;;;;;1.47;1.40;;;14.70;58.20;;;;;;4991156;28;20525;-81
2023/01/27 08:35:09;;;;;;;0.90;0.90;;;14.70;58.10;;;;;;4996615;28;20460;-82
2023/01/27 08:37:39;;;;;;;2.30;1.67;;;14.70;58.20;;;;;;4991806;28;20454;-82
2023/01/27 08:40:08;;;;;;;1.40;1.30;;;14.70;58.10;;;;;;4984664;28;20480;-82
2023/01/27 08:42:36;;;;;;;1.50;1.40;;;14.70;58.00;;;;;;4997318;28;20483;-82
2023/01/27 08:45:04;;;;;;;1.67;1.10;;;14.80;58.10;;;;;;4995819;28;20453;-82
2023/01/27 08:47:33;;;;;;;2.40;1.30;;;14.70;58.00;;;;;;4991206;28;20457;-81
2023/01/27 08:50:01;;;;;;;1.30;1.20;;;14.70;58.10;;;;;;4997954;28;20477;-82
2023/01/27 08:52:29;;;;;;;1.67;1.20;;;14.70;58.00;;;;;;4996236;28;20483;-82
2023/01/27 08:54:58;;;;;;;1.10;1.00;;;14.80;58.20;;;;;;4991114;28;20456;-82
2023/01/27 08:57:26;;;;;;;1.20;1.10;;;14.80;58.00;;;;;;4993670;28;20468;-82
2023/01/27 08:59:54;;;;;;;3.13;1.30;;;14.90;58.10;;;;;;4990247;28;20485;-78
2023/01/27 09:02:23;;;;;;;1.23;1.00;;;14.90;58.20;;;;;;4991256;28;20464;-80
2023/01/27 09:04:51;;;;;;;1.50;1.17;;;14.90;58.10;;;;;;4989256;28;20508;-80
2023/01/27 09:07:19;;;;;;;1.87;1.27;;;14.90;58.10;;;;;;4993091;28;20457;-79
2023/01/27 09:09:47;;;;;;;1.40;1.30;;;14.90;58.00;;;;;;4996991;28;20465;-81
2023/01/27 09:12:16;;;;;;;1.20;1.20;;;15.00;58.20;;;;;;4989926;28;20461;-81
2023/01/27 09:14:44;;;;;;;1.03;1.03;;;15.00;58.20;;;;;;4996551;28;20449;-77
2023/01/27 09:17:15;;;;;;;3.37;1.10;;;15.00;58.10;;;;;;4988922;28;20458;-79
2023/01/27 09:19:44;;;;;;;1.30;1.20;;;15.10;58.00;;;;;;4994733;28;20461;-79
2023/01/27 09:22:12;;;;;;;1.30;1.20;;;15.10;57.90;;;;;;4993288;28;20441;-79
2023/01/27 09:24:40;;;;;;;1.77;1.30;;;15.10;57.90;;;;;;4996524;28;20434;-79
2023/01/27 09:27:08;;;;;;;3.03;1.50;;;15.20;58.00;;;;;;4997493;28;20472;-79
2023/01/27 09:29:38;;;;;;;4.10;1.00;;;15.20;58.10;;;;;;4993191;28;20465;-79
2023/01/27 09:32:07;;;;;;;1.30;1.20;;;15.20;58.00;;;;;;4996754;28;20449;-78
2023/01/27 09:34:35;;;;;;;1.27;1.13;;;15.20;58.10;;;;;;4991573;28;20472;-79
2023/01/27 09:37:05;;;;;;;1.10;1.00;;;15.20;58.10;;;;;;4997093;28;20452;-78
2023/01/27 09:39:33;;;;;;;1.57;1.37;;;15.20;58.00;;;;;;4991692;28;20520;-80
2023/01/27 09:42:13;;;;;;;1.63;1.10;;;15.20;58.10;;;;;;4997905;28;20469;-79
2023/01/27 09:44:59;;;;;;;1.27;1.10;;;15.20;58.00;;;;;;4996319;28;20493;-79
2023/01/27 09:47:34;;;;;;;1.00;1.00;;;15.20;58.00;;;;;;4987920;28;20453;-80
2023/01/27 09:50:30;;;;;;;1.00;1.00;;;15.20;58.10;;;;;;4992957;28;20465;-80
2023/01/27 09:53:07;;;;;;;1.20;1.20;;;15.30;58.10;;;;;;4971736;28;20477;-80
2023/01/27 09:55:37;;;;;;;4.27;1.70;;;15.20;58.10;;;;;;4984678;28;20440;-80
2023/01/27 09:58:07;;;;;;;2.40;1.20;;;15.20;58.20;;;;;;4991492;28;20521;-79
2023/01/27 10:00:45;;;;;;;1.17;1.07;;;15.30;58.20;;;;;;4986111;28;20456;-80
2023/01/27 10:03:35;;;;;;;1.10;1.00;;;15.30;58.00;;;;;;4993716;28;20441;-80
2023/01/27 10:06:18;;;;;;;0.97;0.97;;;15.30;58.70;;;;;;4989675;28;20517;-79
2023/01/27 10:08:57;;;;;;;2.20;0.80;;;15.30;58.20;;;;;;4988009;28;20469;-79
2023/01/27 10:11:28;;;;;;;1.20;1.10;;;15.30;58.20;;;;;;4989797;28;20504;-78
2023/01/27 10:14:03;;;;;;;1.13;1.13;;;15.30;58.20;;;;;;4991001;28;20557;-80
2023/01/27 10:16:47;;;;;;;1.00;1.00;;;15.30;58.20;;;;;;4990525;28;20468;-80
2023/01/27 10:19:25;;;;;;;0.90;0.90;;;15.30;58.20;;;;;;4991109;28;20528;-82
2023/01/27 10:21:57;;;;;;;1.87;0.97;;;15.30;58.30;;;;;;4987890;28;20536;-82
2023/01/27 10:24:32;;;;;;;1.10;1.07;;;15.30;58.30;;;;;;4991506;28;20437;-76
2023/01/27 10:27:03;;;;;;;1.20;1.10;;;15.30;58.30;;;;;;4992539;28;20476;-79
2023/01/27 10:29:34;;;;;;;1.33;1.23;;;15.30;58.20;;;;;;4989081;28;20451;-78
2023/01/27 10:32:07;;;;;;;2.20;1.30;;;15.30;58.20;;;;;;4992369;28;20451;-78
2023/01/27 10:34:36;;;;;;;1.73;1.07;;;15.30;58.30;;;;;;4988431;28;20561;-77
2023/01/27 10:37:10;;;;;;;3.83;1.30;;;15.30;58.20;;;;;;4991170;28;20469;-77
2023/01/27 10:39:42;;;;;;;1.40;1.30;;;15.30;58.30;;;;;;4987565;28;20504;-82
2023/01/27 10:42:16;;;;;;;1.30;1.20;;;15.30;58.40;;;;;;4990886;28;20481;-81
2023/01/27 10:44:59;;;;;;;1.10;1.10;;;15.20;58.40;;;;;;4991513;28;20453;-81
2023/01/27 10:47:34;;;;;;;3.70;1.10;;;15.30;58.30;;;;;;4990209;28;20464;-79
2023/01/27 10:50:04;;;;;;;2.00;1.10;;;15.30;58.40;;;;;;4994933;28;20560;-80
2023/01/27 10:52:34;;;;;;;1.07;1.07;;;15.30;58.40;;;;;;4998348;28;20458;-84
2023/01/27 10:55:04;;;;;;;1.53;1.40;;;15.20;58.40;;;;;;4991012;28;20556;-84
2023/01/27 10:57:34;;;;;;;2.03;1.37;;;15.30;58.50;;;;;;4993780;28;20477;-86
2023/01/27 11:00:09;;;;;;;1.40;1.30;;;15.30;58.60;;;;;;4995075;28;20478;-84
2023/01/27 11:03:02;;;;;;;2.47;1.40;;;15.30;58.60;;;;;;4989150;28;20529;-84
2023/01/27 11:05:33;;;;;;;1.57;1.47;;;15.30;58.70;;;;;;4998726;28;20463;-86
2023/01/27 11:08:03;;;;;;;2.90;1.30;;;15.30;58.60;;;;;;4997533;28;20537;-84
2023/01/27 11:10:36;;;;;;;2.30;1.30;;;15.30;58.60;;;;;;4999946;28;20507;-83
2023/01/27 11:13:04;;;;;;;1.40;1.30;;;15.30;58.70;;;;;;4992740;28;20491;-85
2023/01/27 11:15:33;;;;;;;1.57;1.30;;;15.30;58.70;;;;;;4997342;28;20576;-84
2023/01/27 11:18:04;;;;;;;5.60;1.33;;;15.40;58.70;;;;;;4995474;28;20523;-82
2023/01/27 11:20:34;;;;;;;1.67;1.57;;;15.40;58.80;;;;;;4992997;28;20554;-83
2023/01/27 11:23:04;;;;;;;1.60;1.50;;;15.40;58.70;;;;;;4987546;28;20460;-83
2023/01/27 11:25:36;;;;;;;1.50;1.40;;;15.40;58.80;;;;;;4998269;28;20547;-81
2023/01/27 11:28:11;;;;;;;1.60;1.50;;;15.40;58.70;;;;;;5004637;28;20516;-83
2023/01/27 11:30:42;;;;;;;2.90;1.47;;;15.40;58.80;;;;;;4984874;28;20485;-84
2023/01/27 11:33:17;;;;;;;1.47;1.30;;;15.40;58.90;;;;;;4993850;28;20480;-84
2023/01/27 11:35:45;;;;;;;1.30;1.20;;;15.50;59.00;;;;;;4995679;28;20467;-83
2023/01/27 11:38:15;;;;;;;1.60;1.50;;;15.50;58.90;;;;;;4990484;28;20458;-81
2023/01/27 11:40:43;;;;;;;5.63;2.00;;;15.40;59.00;;;;;;4994180;28;20567;-82
2023/01/27 11:43:11;;;;;;;4.70;1.57;;;15.30;55.90;;;;;;4991877;28;20468;-84
2023/01/27 11:45:39;;;;;;;1.70;1.60;;;15.00;53.70;;;;;;4992102;28;20454;-85
2023/01/27 11:48:10;;;;;;;3.70;1.70;;;15.20;53.70;;;;;;4989924;28;20969;-84
2023/01/27 11:50:40;;;;;;;4.20;1.50;;;15.40;53.30;;;;;;4986488;28;20472;-82
2023/01/27 11:53:12;;;;;;;1.53;1.10;;;15.60;53.00;;;;;;4992540;28;20480;-82
2023/01/27 11:55:41;;;;;;;1.50;1.40;;;15.60;52.80;;;;;;4992340;28;20858;-82
2023/01/27 11:58:13;;;;;;;1.10;1.10;;;15.70;52.70;;;;;;4992013;28;20549;-82
2023/01/27 12:00:43;;;;;;;3.53;1.40;;;15.70;52.80;;;;;;4986535;28;20469;-82
2023/01/27 12:03:16;;;;;;;1.30;1.20;;;15.70;53.00;;;;;;4994833;28;20465;-82
2023/01/27 12:05:47;;;;;;;1.13;1.13;;;15.70;53.00;;;;;;4991864;28;20457;-82
2023/01/27 12:08:36;;;;;;;1.10;1.10;;;15.70;53.30;;;;;;4992677;28;20509;-82
2023/01/27 12:11:20;;;;;;;0.90;0.90;;;15.70;53.40;;;;;;4994186;28;20523;-81
2023/01/27 12:13:49;;;;;;;1.43;1.20;;;15.70;53.50;;;;;;4994158;28;20448;-82
2023/01/27 12:16:17;;;;;;;3.27;1.60;;;15.70;53.80;;;;;;4994242;28;20457;-81
2023/01/27 12:18:51;;;;;;;1.13;1.00;;;15.70;54.00;;;;;;4984513;28;20542;-82
2023/01/27 12:21:20;;;;;;;1.20;1.00;;;15.70;54.10;;;;;;4991161;28;20469;-81
2023/01/27 12:23:48;;;;;;;0.87;0.87;;;15.60;54.20;;;;;;4993681;28;20461;-81
2023/01/27 12:26:16;;;;;;;1.00;1.00;;;15.70;54.40;;;;;;4987446;28;20512;-81
2023/01/27 12:28:49;;;;;;;2.20;0.90;;;15.60;54.50;;;;;;4985024;28;20446;-83
2023/01/27 12:31:20;;;;;;;1.27;1.17;;;15.60;54.60;;;;;;4992136;28;20487;-83
2023/01/27 12:33:51;;;;;;;0.90;0.90;;;15.60;54.70;;;;;;4990145;28;20484;-82
2023/01/27 12:36:22;;;;;;;0.80;0.80;;;15.60;54.80;;;;;;4996774;28;20463;-83
2023/01/27 12:38:51;;;;;;;1.03;0.93;;;15.60;54.90;;;;;;4993896;28;20454;-82
2023/01/27 12:41:23;;;;;;;4.43;1.00;;;15.60;55.00;;;;;;4995046;28;20472;-80
2023/01/27 12:43:53;;;;;;;3.07;1.20;;;15.70;55.10;;;;;;4987925;28;20457;-81
2023/01/27 12:46:23;;;;;;;1.23;1.13;;;15.60;55.20;;;;;;4990821;28;20505;-80
2023/01/27 12:48:52;;;;;;;1.20;1.00;;;15.60;55.70;;;;;;4993322;28;20461;-80
2023/01/27 12:51:22;;;;;;;1.40;1.30;;;15.60;55.20;;;;;;4993125;28;20481;-80
2023/01/27 12:53:50;;;;;;;1.20;1.20;;;15.60;55.30;;;;;;4989809;28;20549;-81
2023/01/27 12:56:20;;;;;;;3.33;1.40;;;15.70;55.30;;;;;;4996805;28;20523;-79
2023/01/27 12:58:56;;;;;;;1.60;1.50;;;15.60;55.30;;;;;;4990876;28;20453;-81
2023/01/27 13:01:27;;;;;;;1.20;1.10;;;15.70;55.40;;;;;;4990486;28;20473;-80
2023/01/27 13:03:57;;;;;;;2.40;1.60;;;15.70;55.50;;;;;;4987436;28;20453;-81
2023/01/27 13:06:41;;;;;;;1.63;1.53;;;15.60;56.10;;;;;;4992773;28;20515;-81
2023/01/27 13:09:20;;;;;;;1.70;1.30;;;15.70;55.40;;;;;;4984893;28;20445;-80
2023/01/27 13:11:48;;;;;;;1.73;1.60;;;15.70;55.50;;;;;;4990827;28;20521;-79
2023/01/27 13:14:17;;;;;;;1.50;1.40;;;15.70;55.60;;;;;;4993611;28;20476;-78
2023/01/27 13:16:50;;;;;;;1.10;1.10;;;15.60;55.40;;;;;;4992812;28;20521;-78
2023/01/27 13:19:19;;;;;;;4.27;1.30;;;15.70;55.60;;;;;;4993159;28;20463;-80
2023/01/27 13:21:50;;;;;;;1.67;1.53;;;15.60;55.50;;;;;;4998333;28;20453;-80
2023/01/27 13:24:22;;;;;;;1.37;1.23;;;15.60;55.50;;;;;;4994670;28;20457;-80
2023/01/27 13:26:50;;;;;;;1.63;1.53;;;15.60;56.20;;;;;;4991217;28;20473;-80
2023/01/27 13:29:20;;;;;;;1.63;1.40;;;15.60;55.70;;;;;;4994218;28;20540;-81